4I3 weather

Knox County Airport
Mount Vernon, Ohio, United States

Public forecast

Using degrees Fahrenheit for public forecast. Weather courtesy of forecast.io.

METAR (pilot weather report)

Retrieved 2019/04/23 00:15 UTC (0 seconds ago):

K4I3 230015Z AUTO 19004KT 10SM CLR 18/09 A3012 RMK AO2

TAF (pilot weather forecast)

Forecast is more than 12 hours old.

Closest forecast is John Glenn Columbus International Airport, 26.1 nm (48.3 km) SW. Retrieved 2019/04/22 00:45 UTC (23 hours ago):

TAF KCMH 222343Z 2300/2324 16006KT P6SM SCT200 FM231400 21012KT P6SM VCSH SCT050 FM231600 22014G22KT P6SM VCSH BKN040 FM231800 25014G22KT 5SM -SHRA VCTS OVC035CB FM232100 27012G22KT P6SM VCSH BKN040